Time;durP1;ratioP1;P1;durP2;ratioP2;P2;SDS_P1;SDS_P2;PMS_P1;PMS_P2;Temp;Humidity;BMP_temperature;BMP_pressure;BME280_temperature;BME280_humidity;BME280_pressure;Samples;Min_cycle;Max_cycle;Signal;HPM_P1;HPM_P2
2022/10/28 00:00:48;;;;;;;10.65;5.22;;;16.30;99.90;;;;;;5097348;28;20105;-68
2022/10/28 00:03:14;;;;;;;11.30;4.80;;;16.30;99.90;;;;;;5098174;28;20407;-68
2022/10/28 00:05:40;;;;;;;13.15;5.45;;;16.20;99.90;;;;;;5080749;28;20112;-67
2022/10/28 00:08:06;;;;;;;10.70;5.60;;;16.20;99.90;;;;;;5097610;28;20080;-68
2022/10/28 00:10:32;;;;;;;9.23;4.97;;;16.20;99.90;;;;;;5097098;28;20028;-68
2022/10/28 00:12:58;;;;;;;10.13;5.00;;;16.30;99.90;;;;;;5097897;28;20039;-68
2022/10/28 00:15:24;;;;;;;15.07;5.63;;;16.30;99.90;;;;;;5097944;28;20032;-68
2022/10/28 00:17:50;;;;;;;11.45;5.43;;;16.30;99.90;;;;;;5097272;28;20395;-68
2022/10/28 00:20:16;;;;;;;11.00;4.90;;;16.30;99.90;;;;;;5097031;28;20106;-68
2022/10/28 00:22:42;;;;;;;9.88;4.88;;;16.30;99.90;;;;;;5080307;28;20115;-68
2022/10/28 00:25:09;;;;;;;8.93;4.65;;;16.20;99.90;;;;;;5096898;28;20051;-68
2022/10/28 00:27:35;;;;;;;8.43;4.85;;;16.20;99.90;;;;;;5097635;28;20115;-69
2022/10/28 00:30:01;;;;;;;11.02;5.25;;;16.20;99.90;;;;;;5080757;28;20355;-69
2022/10/28 00:32:30;;;;;;;12.45;5.28;;;16.20;99.90;;;;;;5097415;28;20043;-69
2022/10/28 00:34:57;;;;;;;9.43;5.15;;;16.20;99.90;;;;;;5096834;28;20395;-68
2022/10/28 00:37:23;;;;;;;14.52;5.85;;;16.20;99.90;;;;;;5097696;28;20397;-69
2022/10/28 00:39:48;;;;;;;10.15;5.10;;;16.10;99.90;;;;;;5097467;28;20032;-68
2022/10/28 00:42:21;;;;;;;12.48;5.18;;;16.20;99.90;;;;;;5079753;28;20284;-69
2022/10/28 00:45:02;;;;;;;10.00;4.70;;;16.10;99.90;;;;;;5096671;28;20059;-69
2022/10/28 00:47:56;;;;;;;13.75;4.97;;;16.10;99.90;;;;;;5096750;28;20024;-69
2022/10/28 00:50:40;;;;;;;11.57;5.10;;;16.10;99.90;;;;;;5079697;28;20035;-69
2022/10/28 00:53:12;;;;;;;10.90;4.93;;;16.00;99.90;;;;;;5097171;28;20027;-69
2022/10/28 00:55:37;;;;;;;13.05;5.57;;;16.00;99.90;;;;;;5096779;28;20102;-69
2022/10/28 00:58:05;;;;;;;9.73;5.28;;;16.00;99.90;;;;;;5096679;28;20076;-69
2022/10/28 01:00:31;;;;;;;12.45;4.70;;;16.00;99.90;;;;;;5096750;28;20032;-69
2022/10/28 01:02:57;;;;;;;8.18;4.82;;;16.00;99.90;;;;;;5096212;28;20038;-69
2022/10/28 01:05:27;;;;;;;12.75;4.95;;;15.90;99.90;;;;;;5079862;28;20050;-69
2022/10/28 01:07:57;;;;;;;13.18;5.05;;;15.90;99.90;;;;;;5097227;28;20020;-69
2022/10/28 01:10:33;;;;;;;14.77;5.53;;;15.90;99.90;;;;;;5096243;28;20024;-69
2022/10/28 01:13:21;;;;;;;9.45;5.20;;;15.90;99.90;;;;;;5096308;28;20119;-69
2022/10/28 01:15:58;;;;;;;12.20;5.57;;;16.00;99.90;;;;;;5097009;28;20115;-69
2022/10/28 01:18:57;;;;;;;10.63;4.95;;;16.00;99.90;;;;;;5097261;28;20109;-68
2022/10/28 01:21:52;;;;;;;10.70;5.63;;;16.10;99.90;;;;;;5097160;28;20097;-68
2022/10/28 01:24:27;;;;;;;11.20;4.63;;;16.10;99.90;;;;;;5096117;28;20027;-68
2022/10/28 01:27:07;;;;;;;12.68;5.10;;;16.10;99.90;;;;;;5096482;28;20031;-69
2022/10/28 01:29:54;;;;;;;11.55;4.97;;;16.20;99.90;;;;;;5096164;28;20043;-68
2022/10/28 01:32:47;;;;;;;10.25;5.18;;;16.10;99.90;;;;;;5096400;28;20044;-68
2022/10/28 01:35:39;;;;;;;12.55;5.03;;;16.00;99.90;;;;;;5096087;28;20303;-68
2022/10/28 01:38:19;;;;;;;13.55;5.18;;;16.10;99.90;;;;;;5113065;28;20189;-68
2022/10/28 01:41:09;;;;;;;10.18;4.72;;;16.10;99.90;;;;;;5096203;28;20097;-68
2022/10/28 01:43:58;;;;;;;11.50;4.82;;;16.20;99.90;;;;;;5096106;28;20039;-69
2022/10/28 01:46:33;;;;;;;15.63;5.03;;;16.30;99.90;;;;;;5096083;28;20050;-69
2022/10/28 01:49:12;;;;;;;14.18;4.82;;;16.30;99.90;;;;;;5097091;28;20017;-69
2022/10/28 01:51:51;;;;;;;13.20;4.85;;;16.30;99.90;;;;;;5096962;28;20058;-69
2022/10/28 01:54:23;;;;;;;9.02;4.75;;;16.30;99.90;;;;;;5096696;28;20314;-69
2022/10/28 01:56:52;;;;;;;12.32;4.13;;;16.20;99.90;;;;;;5097086;28;20047;-69
2022/10/28 01:59:29;;;;;;;7.65;4.65;;;16.20;99.90;;;;;;5095937;28;20032;-69
2022/10/28 02:01:55;;;;;;;10.55;4.57;;;16.20;99.90;;;;;;5079035;28;20028;-69
2022/10/28 02:04:21;;;;;;;6.90;4.55;;;16.10;99.90;;;;;;5095853;28;20020;-69
2022/10/28 02:06:52;;;;;;;12.02;4.90;;;16.00;99.90;;;;;;5096606;28;20039;-69
2022/10/28 02:09:21;;;;;;;12.60;5.10;;;16.00;99.90;;;;;;5096171;28;20024;-69
2022/10/28 02:12:06;;;;;;;15.82;5.00;;;16.00;99.90;;;;;;5096061;28;20032;-68
2022/10/28 02:14:46;;;;;;;11.32;5.20;;;16.00;99.90;;;;;;5100459;28;20085;-68
2022/10/28 02:17:25;;;;;;;10.10;4.53;;;15.90;99.90;;;;;;5100474;28;20028;-68
2022/10/28 02:20:26;;;;;;;11.80;4.55;;;15.90;99.90;;;;;;5100838;28;20035;-68
2022/10/28 02:23:07;;;;;;;7.80;4.40;;;15.90;99.90;;;;;;5059989;28;20043;-68
2022/10/28 02:25:42;;;;;;;11.77;4.72;;;15.90;99.90;;;;;;5100305;28;20058;-68
2022/10/28 02:28:11;;;;;;;11.57;4.78;;;15.90;99.90;;;;;;5099857;28;20071;-68
2022/10/28 02:30:50;;;;;;;9.68;4.90;;;15.90;99.90;;;;;;5099053;28;20024;-68
2022/10/28 02:33:22;;;;;;;10.00;4.40;;;15.80;99.90;;;;;;5082117;28;20059;-67
2022/10/28 02:36:03;;;;;;;10.50;4.70;;;15.80;99.90;;;;;;5099072;28;20402;-68
2022/10/28 02:38:36;;;;;;;9.35;4.68;;;15.70;99.90;;;;;;5098987;28;20028;-69
2022/10/28 02:41:07;;;;;;;13.77;4.80;;;15.60;99.90;;;;;;5099885;28;20130;-69
2022/10/28 02:43:37;;;;;;;13.43;5.03;;;15.60;99.90;;;;;;5099530;28;20036;-69
2022/10/28 02:46:04;;;;;;;12.65;4.85;;;15.60;99.90;;;;;;5099546;28;20019;-68
2022/10/28 02:48:38;;;;;;;13.63;5.00;;;15.60;99.90;;;;;;5099644;28;20048;-68
2022/10/28 02:51:15;;;;;;;12.30;5.10;;;15.60;99.90;;;;;;5100260;28;20035;-68
2022/10/28 02:54:09;;;;;;;14.07;5.20;;;15.50;99.90;;;;;;5099946;28;20141;-68
2022/10/28 02:56:48;;;;;;;12.82;5.35;;;15.50;99.90;;;;;;5098640;28;20391;-68
2022/10/28 02:59:14;;;;;;;8.10;4.45;;;15.40;99.90;;;;;;5099450;28;20044;-69
2022/10/28 03:01:39;;;;;;;9.57;4.78;;;15.40;99.90;;;;;;5098880;28;20043;-68
2022/10/28 03:04:05;;;;;;;10.10;4.90;;;15.40;99.90;;;;;;5099153;28;20035;-68
2022/10/28 03:06:31;;;;;;;11.27;4.88;;;15.30;99.90;;;;;;5099218;28;20024;-69
2022/10/28 03:08:57;;;;;;;11.20;5.60;;;15.20;99.90;;;;;;5099243;28;20148;-68
2022/10/28 03:11:23;;;;;;;11.80;5.03;;;15.20;99.90;;;;;;5099370;28;20063;-69
2022/10/28 03:13:48;;;;;;;13.25;5.10;;;15.20;99.90;;;;;;5099196;28;20032;-68
2022/10/28 03:16:14;;;;;;;10.38;5.20;;;15.20;99.90;;;;;;5099501;28;20035;-68
2022/10/28 03:18:40;;;;;;;10.43;5.13;;;15.20;99.90;;;;;;5098261;28;20300;-68
2022/10/28 03:21:06;;;;;;;12.10;5.07;;;15.20;99.90;;;;;;5081370;28;20170;-69
2022/10/28 03:23:32;;;;;;;9.63;4.35;;;15.20;99.90;;;;;;5080734;28;20130;-68
2022/10/28 03:25:57;;;;;;;11.38;5.90;;;15.20;99.90;;;;;;5099389;28;20043;-68
2022/10/28 03:28:23;;;;;;;13.25;6.28;;;15.20;99.90;;;;;;5098953;28;20040;-69
2022/10/28 03:30:49;;;;;;;16.42;9.57;;;15.10;99.90;;;;;;5098723;28;20035;-69
2022/10/28 03:33:15;;;;;;;14.45;9.18;;;15.10;99.90;;;;;;5099510;28;20407;-68
2022/10/28 03:35:40;;;;;;;11.90;7.65;;;15.10;99.90;;;;;;5081459;28;20044;-69
2022/10/28 03:38:06;;;;;;;11.65;6.53;;;15.10;99.90;;;;;;5098080;28;20040;-68
2022/10/28 03:40:33;;;;;;;10.88;5.25;;;15.10;99.90;;;;;;5099179;28;20047;-69
2022/10/28 03:42:59;;;;;;;10.63;5.32;;;15.10;99.90;;;;;;5098518;28;20276;-70
2022/10/28 03:45:24;;;;;;;10.40;5.40;;;15.00;99.90;;;;;;5098352;28;20028;-69
2022/10/28 03:47:50;;;;;;;13.35;5.20;;;15.10;99.90;;;;;;5097901;28;20061;-69
2022/10/28 03:50:16;;;;;;;11.25;5.35;;;15.00;99.90;;;;;;5098009;28;20036;-69
2022/10/28 03:52:43;;;;;;;10.43;5.65;;;14.90;99.90;;;;;;5098329;28;20028;-69
2022/10/28 03:55:09;;;;;;;15.13;5.88;;;14.90;99.90;;;;;;5098869;28;20028;-69
2022/10/28 03:57:35;;;;;;;13.40;5.68;;;14.90;99.90;;;;;;5097927;28;20040;-69
2022/10/28 04:00:01;;;;;;;14.40;5.63;;;14.90;99.90;;;;;;5098316;28;20032;-69
2022/10/28 04:02:27;;;;;;;12.02;5.55;;;14.80;99.90;;;;;;5080640;28;20036;-69
2022/10/28 04:04:53;;;;;;;12.68;5.07;;;14.80;99.90;;;;;;5080459;28;20064;-68
2022/10/28 04:07:18;;;;;;;11.75;5.30;;;14.90;99.90;;;;;;5080508;28;20349;-69
2022/10/28 04:09:44;;;;;;;12.30;5.30;;;14.90;99.90;;;;;;5097600;28;20028;-69
2022/10/28 04:12:10;;;;;;;11.00;5.45;;;14.90;99.90;;;;;;5097641;28;20302;-69
2022/10/28 04:14:36;;;;;;;11.60;5.25;;;14.80;99.90;;;;;;5097262;28;20101;-69
2022/10/28 04:17:02;;;;;;;9.80;5.18;;;14.80;99.90;;;;;;5097146;28;20021;-69
2022/10/28 04:19:27;;;;;;;12.25;5.65;;;14.80;99.90;;;;;;5096984;28;20414;-69
2022/10/28 04:21:53;;;;;;;12.00;5.57;;;14.80;99.90;;;;;;5097210;28;20036;-69
2022/10/28 04:24:19;;;;;;;9.38;4.68;;;14.80;99.90;;;;;;5080166;28;20127;-69
2022/10/28 04:26:45;;;;;;;10.50;5.88;;;14.80;99.90;;;;;;5098293;28;20028;-69
2022/10/28 04:29:10;;;;;;;12.43;5.97;;;14.80;99.90;;;;;;5096831;28;20028;-68
2022/10/28 04:31:36;;;;;;;11.50;5.75;;;14.80;99.90;;;;;;5096843;28;20047;-69
2022/10/28 04:34:02;;;;;;;12.55;5.60;;;14.70;99.90;;;;;;5097832;28;20101;-68
2022/10/28 04:36:28;;;;;;;16.40;5.93;;;14.70;99.90;;;;;;5096402;28;20032;-68
2022/10/28 04:38:53;;;;;;;13.23;5.45;;;14.80;99.90;;;;;;5096737;28;20032;-68
2022/10/28 04:41:19;;;;;;;11.25;5.38;;;14.70;99.90;;;;;;5097551;28;20057;-69
2022/10/28 04:43:45;;;;;;;14.68;5.93;;;14.80;99.90;;;;;;5097532;28;20024;-68
2022/10/28 04:46:11;;;;;;;10.68;5.32;;;14.80;99.90;;;;;;5097994;28;20024;-68
2022/10/28 04:48:36;;;;;;;9.20;5.18;;;14.80;99.90;;;;;;5096630;28;20055;-68
2022/10/28 04:51:02;;;;;;;13.98;5.50;;;14.80;99.90;;;;;;5096538;28;20357;-68
2022/10/28 04:53:28;;;;;;;11.57;5.47;;;14.80;99.90;;;;;;5096678;28;20118;-68
2022/10/28 04:55:57;;;;;;;12.75;5.97;;;14.70;99.90;;;;;;5097220;28;20036;-68
2022/10/28 04:58:24;;;;;;;13.80;5.70;;;14.80;99.90;;;;;;5097211;28;20528;-68
2022/10/28 05:00:50;;;;;;;7.85;5.45;;;14.70;99.90;;;;;;5097142;28;20046;-68
2022/10/28 05:03:15;;;;;;;11.48;5.57;;;14.70;99.90;;;;;;5096569;28;20047;-67
2022/10/28 05:05:41;;;;;;;11.32;5.80;;;14.70;99.90;;;;;;5079962;28;20406;-68
2022/10/28 05:08:07;;;;;;;13.45;6.25;;;14.70;99.90;;;;;;5096577;28;20071;-68
2022/10/28 05:10:33;;;;;;;17.25;6.05;;;14.70;99.90;;;;;;5063081;28;20041;-68
2022/10/28 05:12:59;;;;;;;9.98;5.32;;;14.70;99.90;;;;;;5097128;28;20036;-68
2022/10/28 05:15:25;;;;;;;10.75;6.05;;;14.70;99.90;;;;;;5096347;28;20055;-68
2022/10/28 05:17:51;;;;;;;16.23;6.35;;;14.60;99.90;;;;;;5097555;28;20032;-68
2022/10/28 05:20:19;;;;;;;9.75;5.50;;;14.60;99.90;;;;;;5079622;28;20028;-67
2022/10/28 05:22:53;;;;;;;11.35;5.63;;;14.60;99.90;;;;;;5096934;28;20338;-67
2022/10/28 05:25:20;;;;;;;14.60;5.90;;;14.60;99.90;;;;;;5096316;28;20031;-68
2022/10/28 05:27:46;;;;;;;13.88;6.10;;;14.60;99.90;;;;;;5096947;28;20028;-69
2022/10/28 05:30:12;;;;;;;10.57;5.70;;;14.50;99.90;;;;;;5096203;28;20040;-68
2022/10/28 05:32:38;;;;;;;14.40;6.32;;;14.50;99.90;;;;;;5096305;28;20051;-68
2022/10/28 05:35:05;;;;;;;13.23;5.70;;;14.50;99.90;;;;;;5096950;28;20036;-69
2022/10/28 05:37:31;;;;;;;12.25;6.15;;;14.50;99.90;;;;;;5096318;28;20115;-69
2022/10/28 05:39:56;;;;;;;12.60;5.68;;;14.60;99.90;;;;;;5096894;28;20351;-69
2022/10/28 05:42:22;;;;;;;16.77;6.35;;;14.60;99.90;;;;;;5079403;28;20360;-69
2022/10/28 05:44:48;;;;;;;14.00;6.38;;;14.50;99.90;;;;;;5097063;28;20020;-69
2022/10/28 05:47:14;;;;;;;13.43;6.20;;;14.50;99.90;;;;;;5080268;28;20032;-68
2022/10/28 05:49:39;;;;;;;12.18;6.65;;;14.50;99.90;;;;;;5099743;28;20140;-69
2022/10/28 05:52:05;;;;;;;13.35;6.35;;;14.40;99.90;;;;;;5099956;28;20394;-69
2022/10/28 05:54:31;;;;;;;14.88;6.13;;;14.40;99.90;;;;;;5100116;28;20047;-70
2022/10/28 05:56:57;;;;;;;11.52;6.18;;;14.40;99.90;;;;;;5099902;28;20040;-69
2022/10/28 05:59:22;;;;;;;13.48;6.68;;;14.40;99.90;;;;;;5100180;28;20040;-69
2022/10/28 06:01:48;;;;;;;12.98;6.68;;;14.40;99.90;;;;;;5066147;28;20028;-69
2022/10/28 06:04:14;;;;;;;14.60;6.43;;;14.40;99.90;;;;;;5100409;28;20055;-69
2022/10/28 06:06:40;;;;;;;11.15;6.38;;;14.40;99.90;;;;;;5099787;28;20451;-69
2022/10/28 06:09:05;;;;;;;14.50;6.75;;;14.40;99.90;;;;;;5099439;28;20037;-69
2022/10/28 06:11:31;;;;;;;15.70;6.45;;;14.40;99.90;;;;;;5099612;28;20024;-70
2022/10/28 06:13:57;;;;;;;14.23;7.10;;;14.30;99.90;;;;;;5099533;28;20052;-69
2022/10/28 06:16:23;;;;;;;12.80;6.50;;;14.40;99.90;;;;;;5066173;28;20066;-69
2022/10/28 06:18:48;;;;;;;15.25;6.72;;;14.40;99.90;;;;;;5099349;28;20039;-69
2022/10/28 06:21:14;;;;;;;18.10;6.90;;;14.40;99.90;;;;;;5100488;28;20076;-68
2022/10/28 06:23:40;;;;;;;15.88;6.53;;;14.40;99.90;;;;;;5082254;28;20040;-69
2022/10/28 06:26:06;;;;;;;17.20;7.25;;;14.60;99.90;;;;;;5099506;28;20032;-67
2022/10/28 06:28:32;;;;;;;24.88;7.82;;;14.60;99.90;;;;;;5099220;28;20115;-69
2022/10/28 06:31:06;;;;;;;38.75;9.63;;;14.70;99.90;;;;;;5082218;28;20359;-68
2022/10/28 06:33:32;;;;;;;63.50;9.80;;;14.90;99.90;;;;;;5099785;28;20047;-68
2022/10/28 06:35:59;;;;;;;39.65;8.45;;;15.00;99.90;;;;;;5099821;28;20292;-69
2022/10/28 06:38:25;;;;;;;20.65;6.97;;;15.00;99.90;;;;;;5098973;28;20082;-69
2022/10/28 06:40:51;;;;;;;18.40;6.18;;;15.10;99.90;;;;;;5081977;28;20036;-69
2022/10/28 06:43:17;;;;;;;15.98;6.18;;;15.10;99.90;;;;;;5099244;28;20128;-69
2022/10/28 06:45:45;;;;;;;15.65;5.78;;;15.20;99.90;;;;;;5098697;28;20032;-69
2022/10/28 06:48:12;;;;;;;17.67;5.88;;;15.30;99.90;;;;;;5099557;28;20020;-69
2022/10/28 06:50:38;;;;;;;14.57;5.63;;;15.30;99.90;;;;;;5098461;28;20399;-69
2022/10/28 06:53:04;;;;;;;15.65;5.55;;;15.40;99.90;;;;;;5098671;28;20040;-68
2022/10/28 06:55:30;;;;;;;17.17;5.18;;;15.50;99.90;;;;;;5099436;28;20299;-70
2022/10/28 06:58:01;;;;;;;15.77;5.97;;;15.50;99.90;;;;;;5098262;28;20052;-69
2022/10/28 07:00:28;;;;;;;15.63;6.00;;;15.60;99.90;;;;;;5099360;28;20036;-70
2022/10/28 07:02:55;;;;;;;17.15;6.10;;;15.60;99.90;;;;;;5098535;28;20024;-69
2022/10/28 07:05:22;;;;;;;10.70;5.53;;;15.70;99.90;;;;;;5099131;28;20103;-68
2022/10/28 07:07:48;;;;;;;11.40;5.32;;;15.70;99.90;;;;;;5099606;28;20039;-69
2022/10/28 07:10:14;;;;;;;15.48;5.03;;;15.70;99.90;;;;;;5099565;28;20036;-69
2022/10/28 07:12:40;;;;;;;14.38;5.38;;;15.70;99.90;;;;;;5099559;28;20044;-68
2022/10/28 07:15:06;;;;;;;14.40;5.22;;;15.80;99.90;;;;;;5098619;28;20040;-68
2022/10/28 07:17:32;;;;;;;18.08;6.20;;;15.80;99.90;;;;;;5098152;28;20050;-66
2022/10/28 07:19:58;;;;;;;15.63;5.43;;;15.90;99.90;;;;;;5099786;28;20395;-67
2022/10/28 07:22:23;;;;;;;17.38;6.35;;;16.00;99.90;;;;;;5099625;28;20143;-68
2022/10/28 07:24:49;;;;;;;16.00;5.88;;;16.10;99.90;;;;;;5097935;28;20028;-67
2022/10/28 07:27:15;;;;;;;15.25;5.30;;;16.10;99.90;;;;;;5098845;28;20035;-67
2022/10/28 07:29:41;;;;;;;15.73;6.15;;;16.10;99.90;;;;;;5098473;28;20175;-65
2022/10/28 07:32:06;;;;;;;17.77;5.68;;;16.20;99.90;;;;;;5099023;28;20039;-65
2022/10/28 07:34:32;;;;;;;20.33;5.50;;;16.40;99.90;;;;;;5097773;28;20039;-67
2022/10/28 07:36:58;;;;;;;13.13;5.38;;;16.40;99.90;;;;;;5098590;28;20028;-66
2022/10/28 07:39:24;;;;;;;16.27;6.00;;;16.50;99.90;;;;;;5099105;28;20303;-66
2022/10/28 07:41:49;;;;;;;20.50;5.43;;;16.50;99.90;;;;;;5099341;28;20020;-67
2022/10/28 07:44:15;;;;;;;22.60;6.57;;;16.60;99.90;;;;;;5097648;28;20111;-66
2022/10/28 07:46:41;;;;;;;19.17;6.05;;;16.60;99.90;;;;;;5098421;28;20035;-67
2022/10/28 07:49:07;;;;;;;25.15;6.40;;;16.80;99.90;;;;;;5098484;28;20368;-67
2022/10/28 07:51:33;;;;;;;24.45;6.38;;;16.80;99.90;;;;;;5098951;28;20104;-67
2022/10/28 07:53:59;;;;;;;16.20;5.28;;;16.90;99.90;;;;;;5098071;28;20040;-67
2022/10/28 07:56:25;;;;;;;23.15;5.45;;;16.90;99.90;;;;;;5098535;28;20253;-66
2022/10/28 07:58:50;;;;;;;16.15;6.03;;;16.90;99.90;;;;;;5080466;28;20118;-66
2022/10/28 08:01:18;;;;;;;13.05;5.30;;;16.90;99.90;;;;;;5097866;28;20335;-66
2022/10/28 08:03:46;;;;;;;15.43;5.63;;;17.10;99.90;;;;;;5098107;28;20040;-67
2022/10/28 08:06:21;;;;;;;16.30;5.55;;;17.20;99.90;;;;;;5098228;28;20027;-66
2022/10/28 08:08:53;;;;;;;15.73;5.43;;;17.30;99.90;;;;;;5098107;28;20176;-66
2022/10/28 08:11:23;;;;;;;15.60;5.53;;;17.50;99.90;;;;;;5096520;28;20024;-66
2022/10/28 08:13:52;;;;;;;14.25;5.53;;;17.60;99.90;;;;;;5097975;28;20043;-67
2022/10/28 08:16:18;;;;;;;16.75;4.85;;;17.60;99.90;;;;;;5098416;28;20456;-66
2022/10/28 08:18:45;;;;;;;15.20;4.78;;;17.60;99.90;;;;;;5097757;28;20046;-67
2022/10/28 08:21:12;;;;;;;14.68;5.15;;;17.50;99.90;;;;;;5098052;28;20032;-68
2022/10/28 08:23:38;;;;;;;14.85;5.10;;;17.50;99.90;;;;;;5097791;28;20020;-67
2022/10/28 08:26:04;;;;;;;15.60;5.43;;;17.50;99.90;;;;;;5063431;28;20520;-67
2022/10/28 08:28:30;;;;;;;15.63;4.75;;;17.50;99.90;;;;;;5096829;28;20028;-68
2022/10/28 08:31:07;;;;;;;12.18;4.85;;;17.60;99.90;;;;;;5096790;28;20065;-67
2022/10/28 08:33:34;;;;;;;16.98;5.00;;;17.60;99.90;;;;;;5097033;28;20032;-67
2022/10/28 08:36:00;;;;;;;14.20;5.03;;;17.60;99.90;;;;;;5097555;28;20066;-67
2022/10/28 08:38:25;;;;;;;12.73;4.75;;;17.60;99.90;;;;;;5097544;28;20071;-68
2022/10/28 08:41:00;;;;;;;13.88;5.22;;;17.70;99.90;;;;;;5079749;28;20432;-67
2022/10/28 08:43:38;;;;;;;20.50;5.10;;;17.70;99.90;;;;;;5097301;28;20032;-67
2022/10/28 08:46:38;;;;;;;13.77;4.85;;;17.70;99.90;;;;;;5096684;28;20411;-67
2022/10/28 08:49:11;;;;;;;10.90;5.25;;;17.80;99.90;;;;;;5097452;28;20032;-67
2022/10/28 08:51:54;;;;;;;11.38;5.00;;;17.80;99.90;;;;;;5096735;28;20036;-67
2022/10/28 08:54:26;;;;;;;11.98;4.88;;;17.90;99.90;;;;;;5080563;28;20380;-67
2022/10/28 08:56:53;;;;;;;14.30;5.07;;;17.90;99.90;;;;;;5096761;28;20044;-67
2022/10/28 08:59:26;;;;;;;19.45;5.25;;;17.90;99.90;;;;;;5096979;28;20380;-67
2022/10/28 09:02:12;;;;;;;;;;;18.00;99.90;;;;;;5097929;28;20024;-67
2022/10/28 09:04:43;;;;;;;15.18;5.78;;;18.00;99.90;;;;;;5096779;28;19973;-67
2022/10/28 09:07:17;;;;;;;13.65;5.15;;;18.10;99.90;;;;;;5097028;28;20399;-67
2022/10/28 09:09:44;;;;;;;17.65;5.70;;;18.30;99.90;;;;;;5096309;28;20047;-67
2022/10/28 09:12:41;;;;;;;15.20;5.85;;;18.40;99.90;;;;;;5096913;28;20027;-67
2022/10/28 09:15:38;;;;;;;13.75;4.75;;;18.40;99.90;;;;;;5097370;28;20025;-67
2022/10/28 09:18:39;;;;;;;13.60;5.32;;;18.60;99.90;;;;;;5096975;28;20020;-67
2022/10/28 09:21:14;;;;;;;14.05;4.80;;;18.90;99.90;;;;;;5097122;28;20383;-67
2022/10/28 09:23:55;;;;;;;15.38;4.60;;;19.00;99.90;;;;;;5101242;28;20119;-68
2022/10/28 09:26:39;;;;;;;13.80;5.57;;;19.20;99.90;;;;;;5100651;28;20360;-67
2022/10/28 09:29:30;;;;;;;17.38;4.60;;;19.20;99.90;;;;;;5100799;28;20024;-67
2022/10/28 09:32:27;;;;;;;15.52;4.97;;;19.20;99.90;;;;;;5100966;28;20032;-67
2022/10/28 09:35:15;;;;;;;22.10;4.90;;;19.30;99.90;;;;;;5101320;28;20028;-67
2022/10/28 09:37:55;;;;;;;16.67;4.82;;;19.40;99.90;;;;;;5100051;28;20020;-67
2022/10/28 09:40:25;;;;;;;14.05;4.95;;;19.60;99.90;;;;;;5100803;28;20076;-67
2022/10/28 09:43:14;;;;;;;15.07;4.93;;;19.70;99.90;;;;;;5100595;28;20380;-68
2022/10/28 09:45:45;;;;;;;16.30;4.85;;;19.90;99.90;;;;;;5090702;28;20093;-67
2022/10/28 09:48:18;;;;;;;12.93;4.07;;;20.10;99.90;;;;;;5100173;28;20028;-70
2022/10/28 09:50:44;;;;;;;18.08;3.83;;;20.30;99.90;;;;;;5099849;28;20032;-68
2022/10/28 09:53:28;;;;;;;15.35;3.90;;;20.50;99.90;;;;;;5100530;28;20035;-67
2022/10/28 09:55:55;;;;;;;13.02;4.22;;;20.90;99.90;;;;;;5100766;28;20024;-68
2022/10/28 09:58:21;;;;;;;14.57;3.40;;;21.10;99.90;;;;;;5082812;28;20143;-69
2022/10/28 10:00:47;;;;;;;13.93;3.70;;;21.20;99.90;;;;;;5100442;28;20456;-69
2022/10/28 10:03:15;;;;;;;12.05;3.22;;;21.40;99.90;;;;;;5099649;28;20032;-69
2022/10/28 10:05:46;;;;;;;14.20;3.15;;;21.60;99.90;;;;;;5100386;28;20109;-66
2022/10/28 10:08:15;;;;;;;15.18;3.88;;;21.80;99.90;;;;;;5099647;28;20035;-69
2022/10/28 10:11:03;;;;;;;8.82;3.13;;;21.80;99.90;;;;;;5099453;28;20410;-68
2022/10/28 10:13:35;;;;;;;13.45;3.78;;;21.90;99.90;;;;;;5100217;28;20043;-70
2022/10/28 10:16:10;;;;;;;;;;;21.90;99.90;;;;;;5100049;28;20034;-67
2022/10/28 10:18:36;;;;;;;15.05;3.40;;;22.00;99.90;;;;;;5100669;28;19908;-64
2022/10/28 10:21:02;;;;;;;9.85;3.33;;;22.20;99.90;;;;;;5083094;28;20123;-69
2022/10/28 10:23:32;;;;;;;13.55;3.10;;;22.60;99.90;;;;;;5082972;28;20115;-68
2022/10/28 10:26:04;;;;;;;11.75;3.40;;;23.20;99.90;;;;;;5099356;28;20023;-69
2022/10/28 10:28:32;;;;;;;12.40;3.40;;;22.90;99.90;;;;;;5082769;28;20038;-70
2022/10/28 10:31:00;;;;;;;10.95;3.20;;;22.60;99.90;;;;;;5100378;28;20093;-68
2022/10/28 10:33:33;;;;;;;16.95;3.17;;;22.30;99.90;;;;;;5081636;28;20441;-68
2022/10/28 10:36:22;;;;;;;9.90;3.20;;;22.30;99.90;;;;;;5099985;28;20032;-67
2022/10/28 10:38:53;;;;;;;10.80;3.42;;;22.20;99.90;;;;;;5099394;28;20134;-64
2022/10/28 10:41:42;;;;;;;13.77;3.95;;;22.00;99.90;;;;;;5099868;28;20104;-67
2022/10/28 10:44:19;;;;;;;10.85;3.40;;;21.90;99.90;;;;;;5099930;28;20116;-69
2022/10/28 10:46:46;;;;;;;13.38;3.40;;;21.90;99.90;;;;;;5099843;28;20031;-68
2022/10/28 10:49:14;;;;;;;9.93;3.25;;;21.80;99.90;;;;;;5099271;28;20028;-69
2022/10/28 10:52:15;;;;;;;15.27;3.85;;;21.90;99.90;;;;;;5099272;28;20311;-69
2022/10/28 10:55:18;;;;;;;13.80;3.13;;;21.90;99.90;;;;;;5099930;28;20024;-70
2022/10/28 10:57:46;;;;;;;;;;;22.00;99.90;;;;;;5055453;28;20040;-68
2022/10/28 11:00:19;;;;;;;10.60;3.33;;;21.90;99.90;;;;;;5098841;28;19951;-67
2022/10/28 11:02:46;;;;;;;;;;;22.00;99.90;;;;;;5099680;28;20085;-68
2022/10/28 11:05:19;;;;;;;10.77;3.33;;;22.00;99.90;;;;;;5099353;28;20226;-68
2022/10/28 11:07:47;;;;;;;15.57;3.70;;;22.10;99.90;;;;;;5098851;28;20089;-67
2022/10/28 11:10:29;;;;;;;14.27;3.38;;;22.20;99.90;;;;;;5099453;28;20310;-68
2022/10/28 11:13:16;;;;;;;16.57;3.33;;;22.10;99.90;;;;;;5099206;28;20287;-68
2022/10/28 11:15:42;;;;;;;11.10;3.13;;;22.10;99.90;;;;;;5080335;28;20039;-68
2022/10/28 11:18:07;;;;;;;13.57;3.40;;;22.00;99.90;;;;;;5081429;28;20363;-66
2022/10/28 11:20:52;;;;;;;9.13;3.38;;;22.10;99.90;;;;;;5098372;28;20043;-67
2022/10/28 11:23:44;;;;;;;13.90;3.85;;;22.10;99.90;;;;;;5081215;28;20088;-66
2022/10/28 11:26:12;;;;;;;12.52;3.42;;;22.30;99.90;;;;;;5098928;28;20028;-68
2022/10/28 11:29:13;;;;;;;9.45;3.25;;;22.70;99.90;;;;;;5098765;28;20032;-67
2022/10/28 11:31:58;;;;;;;13.30;3.08;;;22.40;99.90;;;;;;5098274;28;20032;-67
2022/10/28 11:34:43;;;;;;;10.00;3.08;;;22.10;99.90;;;;;;5099210;28;20395;-66
2022/10/28 11:37:33;;;;;;;17.45;3.60;;;22.20;99.90;;;;;;5098705;28;20420;-67
2022/10/28 11:40:33;;;;;;;12.13;3.15;;;22.20;99.90;;;;;;5098480;28;20032;-68
2022/10/28 11:43:05;;;;;;;16.40;3.63;;;22.20;99.90;;;;;;5099141;28;20107;-68
2022/10/28 11:45:51;;;;;;;6.97;2.88;;;22.20;99.90;;;;;;5098234;28;20032;-66
2022/10/28 11:48:50;;;;;;;12.73;3.30;;;22.50;99.90;;;;;;5098736;28;20061;-69
2022/10/28 11:51:34;;;;;;;15.15;3.08;;;22.70;99.90;;;;;;5098826;28;20028;-68
2022/10/28 11:54:14;;;;;;;7.95;3.05;;;22.60;99.90;;;;;;5098713;28;20035;-68
2022/10/28 11:57:08;;;;;;;14.32;3.50;;;22.30;99.90;;;;;;5080915;28;20052;-67
2022/10/28 11:59:50;;;;;;;16.40;3.17;;;22.60;99.90;;;;;;5098263;28;20065;-69
2022/10/28 12:02:50;;;;;;;11.40;3.40;;;22.60;99.90;;;;;;5099697;28;20039;-67
2022/10/28 12:05:28;;;;;;;15.15;3.33;;;22.60;99.90;;;;;;5098701;28;20036;-68
2022/10/28 12:08:03;;;;;;;9.43;2.95;;;22.60;99.90;;;;;;5098434;28;20042;-67
2022/10/28 12:10:29;;;;;;;12.52;3.30;;;22.60;99.90;;;;;;5080365;28;20127;-66
2022/10/28 12:13:10;;;;;;;11.55;3.20;;;22.40;99.90;;;;;;5097943;28;20430;-67
2022/10/28 12:15:58;;;;;;;10.10;2.97;;;22.50;99.90;;;;;;5097503;28;20028;-66
2022/10/28 12:18:40;;;;;;;11.07;3.20;;;22.50;99.90;;;;;;5097642;28;20334;-68
2022/10/28 12:21:20;;;;;;;12.48;3.17;;;22.50;99.90;;;;;;5097938;28;20392;-68
2022/10/28 12:23:47;;;;;;;10.98;3.33;;;22.30;99.90;;;;;;5097297;28;20077;-67
2022/10/28 12:26:16;;;;;;;8.48;2.92;;;22.20;99.90;;;;;;5097722;28;20043;-67
2022/10/28 12:28:50;;;;;;;15.40;3.20;;;22.40;99.90;;;;;;5097664;28;20307;-67
2022/10/28 12:31:26;;;;;;;11.48;3.08;;;22.60;99.90;;;;;;5097844;28;20032;-67
2022/10/28 12:33:57;;;;;;;11.15;3.13;;;22.70;99.90;;;;;;5097809;28;20304;-67
2022/10/28 12:36:36;;;;;;;8.60;2.83;;;22.60;99.90;;;;;;5098175;28;20023;-67
2022/10/28 12:39:16;;;;;;;12.32;2.97;;;22.80;99.90;;;;;;5097436;28;20036;-67
2022/10/28 12:41:54;;;;;;;11.02;2.90;;;23.00;99.90;;;;;;5097520;28;20032;-67
2022/10/28 12:44:23;;;;;;;10.98;2.90;;;23.40;99.90;;;;;;5097521;28;20299;-67
2022/10/28 12:47:13;;;;;;;13.93;2.85;;;23.20;99.90;;;;;;5097492;28;20102;-66
2022/10/28 12:50:18;;;;;;;11.25;2.88;;;23.20;99.90;;;;;;5097746;28;20020;-68
2022/10/28 12:52:55;;;;;;;12.10;3.33;;;23.10;99.90;;;;;;5096633;28;20032;-67
2022/10/28 12:55:36;;;;;;;11.50;2.90;;;23.20;99.90;;;;;;5097277;28;20063;-67
2022/10/28 12:58:11;;;;;;;10.13;2.78;;;23.30;99.90;;;;;;5096743;28;20109;-68
2022/10/28 13:00:44;;;;;;;13.15;3.08;;;23.30;99.90;;;;;;5097759;28;20122;-67
2022/10/28 13:03:11;;;;;;;;;;;23.30;99.90;;;;;;5097520;28;20118;-67